sensor_id;sensor_type;location;lat;lon;timestamp;pressure;altitude;pressure_sealevel;temperature;humidity
40982;BME280;26708;50.304;19.028;2024-02-23T00:00:25;96341.84;;;10.61;53.78
40982;BME280;26708;50.304;19.028;2024-02-23T00:02:32;96286.19;;;10.36;53.53
40982;BME280;26708;50.304;19.028;2024-02-23T00:04:37;96251.94;;;10.21;53.74
40982;BME280;26708;50.304;19.028;2024-02-23T00:06:43;96323.50;;;10.63;53.46
40982;BME280;26708;50.304;19.028;2024-02-23T00:08:48;96205.63;;;10.03;53.53
40982;BME280;26708;50.304;19.028;2024-02-23T00:10:54;96362.41;;;10.93;53.41
40982;BME280;26708;50.304;19.028;2024-02-23T00:13:00;96354.56;;;10.93;53.45
40982;BME280;26708;50.304;19.028;2024-02-23T00:15:07;96254.28;;;10.28;53.08
40982;BME280;26708;50.304;19.028;2024-02-23T00:17:12;96364.84;;;10.98;53.16
40982;BME280;26708;50.304;19.028;2024-02-23T00:19:21;96349.22;;;10.96;53.06
40982;BME280;26708;50.304;19.028;2024-02-23T00:21:26;96364.78;;;10.99;53.03
40982;BME280;26708;50.304;19.028;2024-02-23T00:23:30;96311.63;;;10.76;52.93
40982;BME280;26708;50.304;19.028;2024-02-23T00:25:36;96206.34;;;10.06;52.91
40982;BME280;26708;50.304;19.028;2024-02-23T00:27:40;96352.38;;;11.04;52.93
40982;BME280;26708;50.304;19.028;2024-02-23T00:29:45;96185.69;;;10.00;52.76
40982;BME280;26708;50.304;19.028;2024-02-23T00:31:53;96269.78;;;10.54;52.94
40982;BME280;26708;50.304;19.028;2024-02-23T00:34:05;96249.53;;;10.38;52.67
40982;BME280;26708;50.304;19.028;2024-02-23T00:36:16;96350.41;;;11.09;52.82
40982;BME280;26708;50.304;19.028;2024-02-23T00:38:22;96341.00;;;11.05;52.81
40982;BME280;26708;50.304;19.028;2024-02-23T00:40:26;96294.66;;;10.64;52.87
40982;BME280;26708;50.304;19.028;2024-02-23T00:42:31;96349.50;;;11.10;53.02
40982;BME280;26708;50.304;19.028;2024-02-23T00:44:36;96346.00;;;11.11;52.72
40982;BME280;26708;50.304;19.028;2024-02-23T00:46:41;96342.56;;;11.09;52.82
40982;BME280;26708;50.304;19.028;2024-02-23T00:48:45;96291.47;;;10.56;52.87
40982;BME280;26708;50.304;19.028;2024-02-23T00:50:53;96199.84;;;10.16;52.92
40982;BME280;26708;50.304;19.028;2024-02-23T00:53:02;96345.41;;;11.03;53.13
40982;BME280;26708;50.304;19.028;2024-02-23T00:55:07;96322.31;;;10.93;53.07
40982;BME280;26708;50.304;19.028;2024-02-23T00:57:13;96155.75;;;9.87;52.86
40982;BME280;26708;50.304;19.028;2024-02-23T00:59:20;96354.72;;;11.10;53.26
40982;BME280;26708;50.304;19.028;2024-02-23T01:01:24;96347.06;;;11.06;53.24
40982;BME280;26708;50.304;19.028;2024-02-23T01:03:30;96345.31;;;11.06;53.10
40982;BME280;26708;50.304;19.028;2024-02-23T01:05:35;96324.06;;;10.92;53.19
40982;BME280;26708;50.304;19.028;2024-02-23T01:07:40;96348.75;;;11.07;53.36
40982;BME280;26708;50.304;19.028;2024-02-23T01:09:46;96201.25;;;10.03;53.01
40982;BME280;26708;50.304;19.028;2024-02-23T01:11:50;96343.38;;;10.90;53.24
40982;BME280;26708;50.304;19.028;2024-02-23T01:13:55;96306.34;;;10.77;53.10
40982;BME280;26708;50.304;19.028;2024-02-23T01:16:00;96259.63;;;10.47;53.10
40982;BME280;26708;50.304;19.028;2024-02-23T01:18:05;96370.38;;;11.12;52.84
40982;BME280;26708;50.304;19.028;2024-02-23T01:20:10;96291.16;;;10.65;52.88
40982;BME280;26708;50.304;19.028;2024-02-23T01:22:16;96365.38;;;11.06;52.80
40982;BME280;26708;50.304;19.028;2024-02-23T01:24:21;96265.59;;;10.50;53.01
40982;BME280;26708;50.304;19.028;2024-02-23T01:26:29;96274.34;;;10.49;53.09
40982;BME280;26708;50.304;19.028;2024-02-23T01:28:35;96279.28;;;10.35;53.17
40982;BME280;26708;50.304;19.028;2024-02-23T01:30:37;96289.91;;;10.52;53.05
40982;BME280;26708;50.304;19.028;2024-02-23T01:32:41;96370.53;;;11.09;53.21
40982;BME280;26708;50.304;19.028;2024-02-23T01:34:47;96368.81;;;11.08;53.07
40982;BME280;26708;50.304;19.028;2024-02-23T01:36:52;96368.09;;;11.04;53.06
40982;BME280;26708;50.304;19.028;2024-02-23T01:38:57;96351.56;;;11.02;53.20
40982;BME280;26708;50.304;19.028;2024-02-23T01:41:04;96364.84;;;10.98;52.87
40982;BME280;26708;50.304;19.028;2024-02-23T01:43:11;96277.81;;;10.50;52.80
40982;BME280;26708;50.304;19.028;2024-02-23T01:45:16;96322.81;;;10.79;52.88
40982;BME280;26708;50.304;19.028;2024-02-23T01:47:21;96322.94;;;10.76;52.81
40982;BME280;26708;50.304;19.028;2024-02-23T01:49:28;96197.91;;;10.00;52.86
40982;BME280;26708;50.304;19.028;2024-02-23T01:51:33;96267.22;;;10.31;52.71
40982;BME280;26708;50.304;19.028;2024-02-23T01:53:40;96332.22;;;10.85;52.96
40982;BME280;26708;50.304;19.028;2024-02-23T01:55:48;96192.56;;;10.03;52.99
40982;BME280;26708;50.304;19.028;2024-02-23T01:58:01;96332.66;;;10.96;53.59
40982;BME280;26708;50.304;19.028;2024-02-23T02:00:16;96338.28;;;10.85;53.62
40982;BME280;26708;50.304;19.028;2024-02-23T02:02:27;96253.34;;;10.29;54.15
40982;BME280;26708;50.304;19.028;2024-02-23T02:04:32;96332.41;;;10.80;53.93
40982;BME280;26708;50.304;19.028;2024-02-23T02:06:38;96330.06;;;10.73;54.42
40982;BME280;26708;50.304;19.028;2024-02-23T02:08:43;96333.47;;;10.75;54.18
40982;BME280;26708;50.304;19.028;2024-02-23T02:10:50;96258.81;;;10.23;54.11
40982;BME280;26708;50.304;19.028;2024-02-23T02:13:02;96330.94;;;10.73;54.03
40982;BME280;26708;50.304;19.028;2024-02-23T02:15:11;96168.75;;;9.66;53.73
40982;BME280;26708;50.304;19.028;2024-02-23T02:17:16;96329.09;;;10.75;53.91
40982;BME280;26708;50.304;19.028;2024-02-23T02:19:20;96287.44;;;10.49;53.66
40982;BME280;26708;50.304;19.028;2024-02-23T02:21:28;96339.66;;;10.72;53.64
40982;BME280;26708;50.304;19.028;2024-02-23T02:23:32;96255.25;;;10.26;53.62
40982;BME280;26708;50.304;19.028;2024-02-23T02:25:34;96330.81;;;10.76;53.70
40982;BME280;26708;50.304;19.028;2024-02-23T02:27:45;96334.19;;;10.78;53.48
40982;BME280;26708;50.304;19.028;2024-02-23T02:29:51;96242.34;;;10.21;53.21
40982;BME280;26708;50.304;19.028;2024-02-23T02:31:59;96341.41;;;10.73;53.40
40982;BME280;26708;50.304;19.028;2024-02-23T02:34:05;96340.59;;;10.71;53.41
40982;BME280;26708;50.304;19.028;2024-02-23T02:36:14;96333.72;;;10.69;53.67
40982;BME280;26708;50.304;19.028;2024-02-23T02:38:19;96355.25;;;10.75;53.87
40982;BME280;26708;50.304;19.028;2024-02-23T02:40:24;96231.06;;;9.98;53.72
40982;BME280;26708;50.304;19.028;2024-02-23T02:42:29;96352.19;;;10.64;54.03
40982;BME280;26708;50.304;19.028;2024-02-23T02:44:38;96262.25;;;10.02;54.36
40982;BME280;26708;50.304;19.028;2024-02-23T02:46:43;96265.31;;;9.90;54.54
40982;BME280;26708;50.304;19.028;2024-02-23T02:48:58;96328.88;;;10.37;54.61
40982;BME280;26708;50.304;19.028;2024-02-23T02:51:04;96348.38;;;10.51;54.89
40982;BME280;26708;50.304;19.028;2024-02-23T02:53:10;96373.84;;;10.68;54.70
40982;BME280;26708;50.304;19.028;2024-02-23T02:55:15;96369.47;;;10.47;55.05
40982;BME280;26708;50.304;19.028;2024-02-23T02:57:20;96278.94;;;9.98;55.26
40982;BME280;26708;50.304;19.028;2024-02-23T02:59:25;96341.34;;;10.52;55.54
40982;BME280;26708;50.304;19.028;2024-02-23T03:01:32;96219.22;;;9.66;55.64
40982;BME280;26708;50.304;19.028;2024-02-23T03:03:37;96369.50;;;10.68;55.57
40982;BME280;26708;50.304;19.028;2024-02-23T03:05:46;96319.22;;;10.39;55.67
40982;BME280;26708;50.304;19.028;2024-02-23T03:07:53;96371.00;;;10.74;55.82
40982;BME280;26708;50.304;19.028;2024-02-23T03:09:57;96383.16;;;10.75;55.68
40982;BME280;26708;50.304;19.028;2024-02-23T03:12:03;96380.81;;;10.69;55.45
40982;BME280;26708;50.304;19.028;2024-02-23T03:14:08;96270.25;;;9.98;55.62
40982;BME280;26708;50.304;19.028;2024-02-23T03:16:15;96390.47;;;10.67;55.66
40982;BME280;26708;50.304;19.028;2024-02-23T03:18:22;96383.56;;;10.64;55.64
40982;BME280;26708;50.304;19.028;2024-02-23T03:20:28;96280.25;;;9.87;56.01
40982;BME280;26708;50.304;19.028;2024-02-23T03:22:37;96278.25;;;9.93;55.90
40982;BME280;26708;50.304;19.028;2024-02-23T03:24:43;96368.53;;;10.48;56.41
40982;BME280;26708;50.304;19.028;2024-02-23T03:26:45;96388.94;;;10.61;56.40
40982;BME280;26708;50.304;19.028;2024-02-23T03:28:49;96343.16;;;10.28;56.35
40982;BME280;26708;50.304;19.028;2024-02-23T03:30:55;96251.53;;;9.62;56.51
40982;BME280;26708;50.304;19.028;2024-02-23T03:33:01;96328.25;;;10.07;56.76
40982;BME280;26708;50.304;19.028;2024-02-23T03:35:07;96394.66;;;10.49;56.78
40982;BME280;26708;50.304;19.028;2024-02-23T03:37:13;96374.13;;;10.39;56.72
40982;BME280;26708;50.304;19.028;2024-02-23T03:39:20;96319.81;;;10.01;56.90
40982;BME280;26708;50.304;19.028;2024-02-23T03:41:22;96407.72;;;10.49;57.02
40982;BME280;26708;50.304;19.028;2024-02-23T03:43:28;96399.94;;;10.48;57.19
40982;BME280;26708;50.304;19.028;2024-02-23T03:45:32;96405.19;;;10.46;57.58
40982;BME280;26708;50.304;19.028;2024-02-23T03:47:38;96354.78;;;10.20;57.66
40982;BME280;26708;50.304;19.028;2024-02-23T03:49:41;96391.56;;;10.38;57.71
40982;BME280;26708;50.304;19.028;2024-02-23T03:51:47;96250.66;;;9.39;58.09
40982;BME280;26708;50.304;19.028;2024-02-23T03:53:52;96265.78;;;9.54;58.29
40982;BME280;26708;50.304;19.028;2024-02-23T03:55:58;96397.09;;;10.31;58.16
40982;BME280;26708;50.304;19.028;2024-02-23T03:58:03;96250.91;;;9.31;58.23
40982;BME280;26708;50.304;19.028;2024-02-23T04:00:09;96393.41;;;10.12;58.40
40982;BME280;26708;50.304;19.028;2024-02-23T04:02:17;96275.97;;;9.37;58.79
40982;BME280;26708;50.304;19.028;2024-02-23T04:04:22;96372.63;;;9.84;59.05
40982;BME280;26708;50.304;19.028;2024-02-23T04:06:27;96269.94;;;9.35;58.92
40982;BME280;26708;50.304;19.028;2024-02-23T04:08:47;96287.78;;;9.47;58.74
40982;BME280;26708;50.304;19.028;2024-02-23T04:10:57;96335.81;;;9.67;58.64
40982;BME280;26708;50.304;19.028;2024-02-23T04:13:04;96352.06;;;9.75;58.58
40982;BME280;26708;50.304;19.028;2024-02-23T04:15:31;96304.00;;;9.56;58.71
40982;BME280;26708;50.304;19.028;2024-02-23T04:17:50;96379.69;;;10.07;58.58
40982;BME280;26708;50.304;19.028;2024-02-23T04:19:55;96398.84;;;10.06;58.74
40982;BME280;26708;50.304;19.028;2024-02-23T04:21:58;96340.13;;;9.68;58.71
40982;BME280;26708;50.304;19.028;2024-02-23T04:24:05;96247.25;;;9.12;58.73
40982;BME280;26708;50.304;19.028;2024-02-23T04:26:11;96284.69;;;9.36;58.93
40982;BME280;26708;50.304;19.028;2024-02-23T04:28:17;96297.25;;;9.25;59.17
40982;BME280;26708;50.304;19.028;2024-02-23T04:30:22;96418.06;;;10.05;59.09
40982;BME280;26708;50.304;19.028;2024-02-23T04:32:27;96355.50;;;9.51;59.06
40982;BME280;26708;50.304;19.028;2024-02-23T04:34:34;96405.91;;;9.79;59.52
40982;BME280;26708;50.304;19.028;2024-02-23T04:36:39;96363.94;;;9.59;59.49
40982;BME280;26708;50.304;19.028;2024-02-23T04:38:43;96438.72;;;10.12;59.48
40982;BME280;26708;50.304;19.028;2024-02-23T04:40:49;96445.59;;;10.15;59.52
40982;BME280;26708;50.304;19.028;2024-02-23T04:42:58;96448.03;;;10.19;59.36
40982;BME280;26708;50.304;19.028;2024-02-23T04:45:06;96432.00;;;10.05;59.33
40982;BME280;26708;50.304;19.028;2024-02-23T04:47:12;96455.81;;;10.21;59.67
40982;BME280;26708;50.304;19.028;2024-02-23T04:49:17;96378.41;;;9.69;59.66
40982;BME280;26708;50.304;19.028;2024-02-23T04:51:22;96439.91;;;10.02;59.90
40982;BME280;26708;50.304;19.028;2024-02-23T04:53:27;96450.81;;;10.15;60.26
40982;BME280;26708;50.304;19.028;2024-02-23T04:55:32;96455.06;;;10.17;60.39
40982;BME280;26708;50.304;19.028;2024-02-23T04:57:38;96438.28;;;10.00;60.48
40982;BME280;26708;50.304;19.028;2024-02-23T04:59:46;96458.59;;;10.16;60.83
40982;BME280;26708;50.304;19.028;2024-02-23T05:01:52;96382.72;;;9.70;61.12
40982;BME280;26708;50.304;19.028;2024-02-23T05:03:58;96463.78;;;10.18;61.05
40982;BME280;26708;50.304;19.028;2024-02-23T05:06:02;96462.16;;;10.14;61.29
40982;BME280;26708;50.304;19.028;2024-02-23T05:08:07;96273.91;;;8.96;61.64
40982;BME280;26708;50.304;19.028;2024-02-23T05:10:12;96468.38;;;10.11;61.69
40982;BME280;26708;50.304;19.028;2024-02-23T05:12:19;96480.56;;;10.11;61.85
40982;BME280;26708;50.304;19.028;2024-02-23T05:14:33;96396.00;;;9.63;62.00
40982;BME280;26708;50.304;19.028;2024-02-23T05:16:53;96450.00;;;9.88;62.18
40982;BME280;26708;50.304;19.028;2024-02-23T05:19:04;96505.75;;;10.13;62.45
40982;BME280;26708;50.304;19.028;2024-02-23T05:21:12;96460.19;;;9.96;62.63
40982;BME280;26708;50.304;19.028;2024-02-23T05:23:18;96415.66;;;9.48;62.51
40982;BME280;26708;50.304;19.028;2024-02-23T05:25:24;96498.63;;;10.18;62.79
40982;BME280;26708;50.304;19.028;2024-02-23T05:27:29;96481.28;;;10.16;62.69
40982;BME280;26708;50.304;19.028;2024-02-23T05:29:34;96500.22;;;10.22;62.58
40982;BME280;26708;50.304;19.028;2024-02-23T05:31:47;96404.47;;;9.71;62.63
40982;BME280;26708;50.304;19.028;2024-02-23T05:33:55;96398.06;;;9.53;63.00
40982;BME280;26708;50.304;19.028;2024-02-23T05:36:00;96498.50;;;10.21;63.10
40982;BME280;26708;50.304;19.028;2024-02-23T05:38:05;96337.28;;;9.25;63.31
40982;BME280;26708;50.304;19.028;2024-02-23T05:40:11;96389.28;;;9.56;63.27
40982;BME280;26708;50.304;19.028;2024-02-23T05:42:16;96279.19;;;8.94;63.41
40982;BME280;26708;50.304;19.028;2024-02-23T05:44:22;96503.63;;;10.24;63.15
40982;BME280;26708;50.304;19.028;2024-02-23T05:46:27;96424.03;;;9.58;63.03
40982;BME280;26708;50.304;19.028;2024-02-23T05:48:32;96514.38;;;10.15;63.33
40982;BME280;26708;50.304;19.028;2024-02-23T05:50:40;96355.75;;;9.19;63.44
40982;BME280;26708;50.304;19.028;2024-02-23T05:52:52;96519.97;;;10.05;63.35
40982;BME280;26708;50.304;19.028;2024-02-23T05:54:57;96495.38;;;9.86;63.74
40982;BME280;26708;50.304;19.028;2024-02-23T05:57:03;96367.66;;;9.00;63.75
40982;BME280;26708;50.304;19.028;2024-02-23T05:59:08;96537.81;;;9.92;64.08
40982;BME280;26708;50.304;19.028;2024-02-23T06:01:13;96542.22;;;9.92;64.29
40982;BME280;26708;50.304;19.028;2024-02-23T06:03:15;96515.59;;;9.79;64.31
40982;BME280;26708;50.304;19.028;2024-02-23T06:05:20;96492.56;;;9.66;64.30
40982;BME280;26708;50.304;19.028;2024-02-23T06:07:27;96477.06;;;9.32;64.33
40982;BME280;26708;50.304;19.028;2024-02-23T06:09:35;96527.94;;;9.76;64.33
40982;BME280;26708;50.304;19.028;2024-02-23T06:11:40;96452.75;;;9.32;64.48
40982;BME280;26708;50.304;19.028;2024-02-23T06:13:44;96465.00;;;9.30;64.56
40982;BME280;26708;50.304;19.028;2024-02-23T06:15:50;96455.94;;;9.41;64.33
40982;BME280;26708;50.304;19.028;2024-02-23T06:17:55;96565.47;;;9.99;64.19
40982;BME280;26708;50.304;19.028;2024-02-23T06:19:59;96564.25;;;9.83;64.56
40982;BME280;26708;50.304;19.028;2024-02-23T06:22:05;96558.72;;;9.92;64.77
40982;BME280;26708;50.304;19.028;2024-02-23T06:24:12;96565.72;;;9.92;64.97
40982;BME280;26708;50.304;19.028;2024-02-23T06:26:16;96576.22;;;9.90;64.90
40982;BME280;26708;50.304;19.028;2024-02-23T06:28:22;96547.16;;;9.73;64.94
40982;BME280;26708;50.304;19.028;2024-02-23T06:30:26;96457.59;;;9.16;65.11
40982;BME280;26708;50.304;19.028;2024-02-23T06:32:31;96565.59;;;9.69;65.38
40982;BME280;26708;50.304;19.028;2024-02-23T06:34:36;96563.97;;;9.63;65.55
40982;BME280;26708;50.304;19.028;2024-02-23T06:36:41;96456.56;;;8.94;65.78
40982;BME280;26708;50.304;19.028;2024-02-23T06:38:46;96524.47;;;9.19;65.93
40982;BME280;26708;50.304;19.028;2024-02-23T06:40:54;96464.47;;;8.91;66.12
40982;BME280;26708;50.304;19.028;2024-02-23T06:42:59;96593.03;;;9.82;65.81
40982;BME280;26708;50.304;19.028;2024-02-23T06:45:01;96636.25;;;9.92;65.69
40982;BME280;26708;50.304;19.028;2024-02-23T06:47:07;96577.25;;;9.57;65.60
40982;BME280;26708;50.304;19.028;2024-02-23T06:49:11;96566.72;;;9.59;65.69
40982;BME280;26708;50.304;19.028;2024-02-23T06:51:16;96633.22;;;10.05;65.58
40982;BME280;26708;50.304;19.028;2024-02-23T06:53:19;96534.63;;;9.55;65.73
40982;BME280;26708;50.304;19.028;2024-02-23T06:55:23;96617.53;;;10.05;65.47
40982;BME280;26708;50.304;19.028;2024-02-23T06:57:30;96608.97;;;10.00;65.50
40982;BME280;26708;50.304;19.028;2024-02-23T06:59:36;96633.50;;;10.22;65.39
40982;BME280;26708;50.304;19.028;2024-02-23T07:01:47;96615.81;;;10.04;65.31
40982;BME280;26708;50.304;19.028;2024-02-23T07:03:53;96637.16;;;10.18;65.36
40982;BME280;26708;50.304;19.028;2024-02-23T07:05:59;96635.19;;;9.99;65.75
40982;BME280;26708;50.304;19.028;2024-02-23T07:08:02;96642.59;;;10.11;65.69
40982;BME280;26708;50.304;19.028;2024-02-23T07:10:08;96654.13;;;10.05;65.72
40982;BME280;26708;50.304;19.028;2024-02-23T07:12:15;96644.72;;;10.00;66.05
40982;BME280;26708;50.304;19.028;2024-02-23T07:14:22;96649.94;;;10.00;65.99
40982;BME280;26708;50.304;19.028;2024-02-23T07:16:26;96649.97;;;9.98;66.30
40982;BME280;26708;50.304;19.028;2024-02-23T07:18:32;96648.25;;;9.99;66.43
40982;BME280;26708;50.304;19.028;2024-02-23T07:20:37;96650.84;;;9.99;66.32
40982;BME280;26708;50.304;19.028;2024-02-23T07:22:43;96643.97;;;9.96;66.52
40982;BME280;26708;50.304;19.028;2024-02-23T07:24:49;96620.75;;;9.87;66.95
40982;BME280;26708;50.304;19.028;2024-02-23T07:26:54;96647.34;;;10.00;66.67
40982;BME280;26708;50.304;19.028;2024-02-23T07:28:58;96642.31;;;9.92;66.58
40982;BME280;26708;50.304;19.028;2024-02-23T07:31:04;96661.31;;;9.99;66.61
40982;BME280;26708;50.304;19.028;2024-02-23T07:33:08;96575.41;;;9.32;66.79
40982;BME280;26708;50.304;19.028;2024-02-23T07:35:13;96611.56;;;9.74;66.71
40982;BME280;26708;50.304;19.028;2024-02-23T07:37:19;96637.09;;;9.92;66.53
40982;BME280;26708;50.304;19.028;2024-02-23T07:39:23;96667.19;;;10.05;66.49
40982;BME280;26708;50.304;19.028;2024-02-23T07:41:28;96581.72;;;9.54;66.38
40982;BME280;26708;50.304;19.028;2024-02-23T07:43:33;96667.19;;;10.05;66.62
40982;BME280;26708;50.304;19.028;2024-02-23T07:45:38;96661.06;;;10.06;66.82
40982;BME280;26708;50.304;19.028;2024-02-23T07:47:46;96669.50;;;10.14;67.00
40982;BME280;26708;50.304;19.028;2024-02-23T07:49:51;96542.00;;;9.43;66.68
40982;BME280;26708;50.304;19.028;2024-02-23T07:51:56;96652.88;;;10.17;66.66
40982;BME280;26708;50.304;19.028;2024-02-23T07:54:01;96672.34;;;10.34;66.60
40982;BME280;26708;50.304;19.028;2024-02-23T07:56:07;96674.09;;;10.34;66.58
40982;BME280;26708;50.304;19.028;2024-02-23T07:58:13;96678.97;;;10.44;66.29
40982;BME280;26708;50.304;19.028;2024-02-23T08:00:19;96622.66;;;10.08;65.86
40982;BME280;26708;50.304;19.028;2024-02-23T08:02:24;96673.78;;;10.43;66.16
40982;BME280;26708;50.304;19.028;2024-02-23T08:04:31;96671.22;;;10.41;66.17
40982;BME280;26708;50.304;19.028;2024-02-23T08:06:36;96530.41;;;9.53;66.31
40982;BME280;26708;50.304;19.028;2024-02-23T08:08:41;96672.88;;;10.44;66.26
40982;BME280;26708;50.304;19.028;2024-02-23T08:10:46;96629.19;;;10.21;66.20
40982;BME280;26708;50.304;19.028;2024-02-23T08:12:51;96597.69;;;10.00;66.02
40982;BME280;26708;50.304;19.028;2024-02-23T08:14:56;96673.94;;;10.38;66.25
40982;BME280;26708;50.304;19.028;2024-02-23T08:17:01;96509.91;;;9.39;66.46
40982;BME280;26708;50.304;19.028;2024-02-23T08:19:06;96680.13;;;10.36;66.92
40982;BME280;26708;50.304;19.028;2024-02-23T08:21:14;96682.59;;;10.40;66.82
40982;BME280;26708;50.304;19.028;2024-02-23T08:23:20;96569.00;;;9.71;66.46
40982;BME280;26708;50.304;19.028;2024-02-23T08:25:24;96687.88;;;10.39;66.58
40982;BME280;26708;50.304;19.028;2024-02-23T08:27:30;96687.06;;;10.37;66.63
40982;BME280;26708;50.304;19.028;2024-02-23T08:29:37;96611.88;;;9.91;66.75
40982;BME280;26708;50.304;19.028;2024-02-23T08:31:42;96702.06;;;10.32;67.05
40982;BME280;26708;50.304;19.028;2024-02-23T08:33:48;96661.78;;;10.11;66.74
40982;BME280;26708;50.304;19.028;2024-02-23T08:35:52;96684.88;;;10.23;66.67
40982;BME280;26708;50.304;19.028;2024-02-23T08:37:59;96690.59;;;10.36;66.83
40982;BME280;26708;50.304;19.028;2024-02-23T08:40:07;96671.63;;;10.29;66.79
40982;BME280;26708;50.304;19.028;2024-02-23T08:42:10;96688.78;;;10.38;67.00
40982;BME280;26708;50.304;19.028;2024-02-23T08:44:14;96690.66;;;10.34;66.74
40982;BME280;26708;50.304;19.028;2024-02-23T08:46:20;96686.41;;;10.30;66.90
40982;BME280;26708;50.304;19.028;2024-02-23T08:48:25;96694.25;;;10.30;66.88
40982;BME280;26708;50.304;19.028;2024-02-23T08:50:29;96692.69;;;10.25;66.95
40982;BME280;26708;50.304;19.028;2024-02-23T08:52:35;96682.47;;;10.17;67.32
40982;BME280;26708;50.304;19.028;2024-02-23T08:54:39;96569.63;;;9.50;67.34
40982;BME280;26708;50.304;19.028;2024-02-23T08:56:44;96694.69;;;10.17;67.55
40982;BME280;26708;50.304;19.028;2024-02-23T08:58:49;96695.63;;;10.14;67.58
40982;BME280;26708;50.304;19.028;2024-02-23T09:00:56;96673.34;;;10.03;67.91
40982;BME280;26708;50.304;19.028;2024-02-23T09:03:00;96616.97;;;9.68;67.61
40982;BME280;26708;50.304;19.028;2024-02-23T09:05:06;96675.09;;;10.02;67.63
40982;BME280;26708;50.304;19.028;2024-02-23T09:07:11;96677.03;;;9.97;67.62
40982;BME280;26708;50.304;19.028;2024-02-23T09:09:16;96596.78;;;9.44;67.56
40982;BME280;26708;50.304;19.028;2024-02-23T09:11:24;96698.25;;;10.14;67.97
40982;BME280;26708;50.304;19.028;2024-02-23T09:13:28;96711.78;;;9.99;67.81
40982;BME280;26708;50.304;19.028;2024-02-23T09:15:31;96704.53;;;10.09;68.05
40982;BME280;26708;50.304;19.028;2024-02-23T09:17:37;96674.31;;;9.71;68.10
40982;BME280;26708;50.304;19.028;2024-02-23T09:19:41;96671.03;;;9.94;68.08
40982;BME280;26708;50.304;19.028;2024-02-23T09:21:46;96701.78;;;10.13;68.10
40982;BME280;26708;50.304;19.028;2024-02-23T09:23:52;96709.63;;;10.13;67.86
40982;BME280;26708;50.304;19.028;2024-02-23T09:25:57;96661.00;;;9.80;68.02
40982;BME280;26708;50.304;19.028;2024-02-23T09:28:04;96738.34;;;10.15;68.00
40982;BME280;26708;50.304;19.028;2024-02-23T09:30:13;96750.38;;;10.19;68.24
40982;BME280;26708;50.304;19.028;2024-02-23T09:32:18;96718.38;;;10.12;68.09
40982;BME280;26708;50.304;19.028;2024-02-23T09:34:23;96596.13;;;9.38;67.77
40982;BME280;26708;50.304;19.028;2024-02-23T09:36:28;96725.06;;;10.21;68.02
40982;BME280;26708;50.304;19.028;2024-02-23T09:38:33;96594.19;;;9.44;67.87
40982;BME280;26708;50.304;19.028;2024-02-23T09:40:39;96680.72;;;9.90;68.27
40982;BME280;26708;50.304;19.028;2024-02-23T09:42:55;96735.75;;;10.41;68.05
40982;BME280;26708;50.304;19.028;2024-02-23T09:45:01;96749.44;;;10.49;68.04
40982;BME280;26708;50.304;19.028;2024-02-23T09:47:06;96755.44;;;10.52;67.86
40982;BME280;26708;50.304;19.028;2024-02-23T09:49:15;96745.16;;;10.46;68.23
40982;BME280;26708;50.304;19.028;2024-02-23T09:51:20;96766.53;;;10.59;68.59
40982;BME280;26708;50.304;19.028;2024-02-23T09:53:27;96775.88;;;10.67;68.66
40982;BME280;26708;50.304;19.028;2024-02-23T09:55:32;96658.72;;;9.97;67.98
40982;BME280;26708;50.304;19.028;2024-02-23T09:57:35;96777.44;;;10.73;68.26
40982;BME280;26708;50.304;19.028;2024-02-23T09:59:41;96780.66;;;10.81;67.76
40982;BME280;26708;50.304;19.028;2024-02-23T10:01:49;96689.44;;;10.18;67.75
40982;BME280;26708;50.304;19.028;2024-02-23T10:03:56;96775.28;;;10.85;67.63
40982;BME280;26708;50.304;19.028;2024-02-23T10:06:02;96738.38;;;10.67;67.61
40982;BME280;26708;50.304;19.028;2024-02-23T10:08:08;96775.88;;;10.95;67.41
40982;BME280;26708;50.304;19.028;2024-02-23T10:10:13;96782.69;;;10.99;67.91
40982;BME280;26708;50.304;19.028;2024-02-23T10:12:18;96783.44;;;11.02;67.31
40982;BME280;26708;50.304;19.028;2024-02-23T10:14:21;96790.41;;;11.03;67.12
40982;BME280;26708;50.304;19.028;2024-02-23T10:16:26;96785.22;;;11.02;66.82
40982;BME280;26708;50.304;19.028;2024-02-23T10:18:33;96683.06;;;10.25;66.80
40982;BME280;26708;50.304;19.028;2024-02-23T10:20:39;96764.97;;;10.81;66.60
40982;BME280;26708;50.304;19.028;2024-02-23T10:22:45;96770.00;;;10.87;66.77
40982;BME280;26708;50.304;19.028;2024-02-23T10:24:55;96744.53;;;10.66;66.47
40982;BME280;26708;50.304;19.028;2024-02-23T10:27:01;96765.47;;;10.92;66.74
40982;BME280;26708;50.304;19.028;2024-02-23T10:29:06;96694.47;;;10.50;66.91
40982;BME280;26708;50.304;19.028;2024-02-23T10:31:11;96743.13;;;10.82;66.64
40982;BME280;26708;50.304;19.028;2024-02-23T10:33:22;96774.97;;;10.96;66.12
40982;BME280;26708;50.304;19.028;2024-02-23T10:35:32;96780.94;;;10.99;66.31
40982;BME280;26708;50.304;19.028;2024-02-23T10:37:43;96704.88;;;10.52;66.12
40982;BME280;26708;50.304;19.028;2024-02-23T10:39:55;96752.50;;;10.89;66.43
40982;BME280;26708;50.304;19.028;2024-02-23T10:42:03;96673.03;;;10.39;65.91
40982;BME280;26708;50.304;19.028;2024-02-23T10:44:11;96731.53;;;10.90;66.03
40982;BME280;26708;50.304;19.028;2024-02-23T10:46:18;96720.19;;;10.90;65.60
40982;BME280;26708;50.304;19.028;2024-02-23T10:48:27;96769.44;;;11.29;65.30
40982;BME280;26708;50.304;19.028;2024-02-23T10:50:33;96772.97;;;11.28;64.77
40982;BME280;26708;50.304;19.028;2024-02-23T10:52:42;96764.44;;;11.22;64.11
40982;BME280;26708;50.304;19.028;2024-02-23T10:54:47;96752.59;;;11.12;63.95
40982;BME280;26708;50.304;19.028;2024-02-23T10:56:54;96788.69;;;11.28;63.91
40982;BME280;26708;50.304;19.028;2024-02-23T10:59:00;96761.69;;;11.02;63.40
40982;BME280;26708;50.304;19.028;2024-02-23T11:01:07;96795.94;;;11.20;63.05